sensor_id;sensor_type;location;lat;lon;timestamp;pressure;altitude;pressure_sealevel;temperature;humidity
53546;BME280;39432;51.902;10.844;2023-04-06T00:00:23;99897.00;;;3.11;85.41
53546;BME280;39432;51.902;10.844;2023-04-06T00:02:53;99891.91;;;3.42;84.07
53546;BME280;39432;51.902;10.844;2023-04-06T00:05:25;99890.09;;;3.63;81.27
53546;BME280;39432;51.902;10.844;2023-04-06T00:07:57;99888.38;;;3.49;80.14
53546;BME280;39432;51.902;10.844;2023-04-06T00:10:27;99890.44;;;2.85;81.70
53546;BME280;39432;51.902;10.844;2023-04-06T00:12:58;99895.59;;;2.11;84.91
53546;BME280;39432;51.902;10.844;2023-04-06T00:15:27;99885.78;;;2.66;86.20
53546;BME280;39432;51.902;10.844;2023-04-06T00:17:57;99886.78;;;2.30;87.39
53546;BME280;39432;51.902;10.844;2023-04-06T00:20:29;99891.22;;;2.38;88.70
53546;BME280;39432;51.902;10.844;2023-04-06T00:22:59;99892.22;;;2.65;88.63
53546;BME280;39432;51.902;10.844;2023-04-06T00:25:29;99880.41;;;3.27;86.66
53546;BME280;39432;51.902;10.844;2023-04-06T00:27:58;99887.00;;;3.79;83.76
53546;BME280;39432;51.902;10.844;2023-04-06T00:30:28;99885.75;;;4.02;79.48
53546;BME280;39432;51.902;10.844;2023-04-06T00:32:58;99884.06;;;3.00;79.80
53546;BME280;39432;51.902;10.844;2023-04-06T00:35:30;99872.16;;;3.62;78.92
53546;BME280;39432;51.902;10.844;2023-04-06T00:38:00;99875.91;;;3.48;78.08
53546;BME280;39432;51.902;10.844;2023-04-06T00:40:30;99880.59;;;2.71;80.13
53546;BME280;39432;51.902;10.844;2023-04-06T00:43:01;99877.25;;;2.69;81.27
53546;BME280;39432;51.902;10.844;2023-04-06T00:45:32;99863.22;;;2.80;81.98
53546;BME280;39432;51.902;10.844;2023-04-06T00:48:02;99864.06;;;2.87;82.83
53546;BME280;39432;51.902;10.844;2023-04-06T00:50:35;99865.50;;;2.83;83.18
53546;BME280;39432;51.902;10.844;2023-04-06T00:53:04;99856.16;;;2.86;84.35
53546;BME280;39432;51.902;10.844;2023-04-06T00:55:34;99855.03;;;3.22;83.29
53546;BME280;39432;51.902;10.844;2023-04-06T00:58:05;99859.75;;;1.96;83.85
53546;BME280;39432;51.902;10.844;2023-04-06T01:00:44;99847.69;;;2.54;85.68
53546;BME280;39432;51.902;10.844;2023-04-06T01:03:17;99860.78;;;2.99;83.20
53546;BME280;39432;51.902;10.844;2023-04-06T01:05:49;99850.59;;;2.53;83.13
53546;BME280;39432;51.902;10.844;2023-04-06T01:08:30;99850.78;;;2.51;83.19
53546;BME280;39432;51.902;10.844;2023-04-06T01:11:14;99849.13;;;2.92;83.18
53546;BME280;39432;51.902;10.844;2023-04-06T01:13:46;99844.00;;;2.27;84.63
53546;BME280;39432;51.902;10.844;2023-04-06T01:16:24;99853.81;;;1.79;87.01
53546;BME280;39432;51.902;10.844;2023-04-06T01:19:15;99844.38;;;1.68;89.84
53546;BME280;39432;51.902;10.844;2023-04-06T01:21:50;99844.97;;;1.64;91.98
53546;BME280;39432;51.902;10.844;2023-04-06T01:24:43;99841.06;;;1.66;94.42
53546;BME280;39432;51.902;10.844;2023-04-06T01:27:45;99844.31;;;1.83;94.07
53546;BME280;39432;51.902;10.844;2023-04-06T01:30:20;99842.72;;;1.46;95.31
53546;BME280;39432;51.902;10.844;2023-04-06T01:32:53;99840.13;;;0.95;98.25
53546;BME280;39432;51.902;10.844;2023-04-06T01:35:46;99840.16;;;0.65;100.00
53546;BME280;39432;51.902;10.844;2023-04-06T01:38:18;99843.25;;;0.98;100.00
53546;BME280;39432;51.902;10.844;2023-04-06T01:40:51;99843.41;;;0.75;100.00
53546;BME280;39432;51.902;10.844;2023-04-06T01:43:23;99850.56;;;0.83;100.00
53546;BME280;39432;51.902;10.844;2023-04-06T01:46:03;99840.34;;;0.49;100.00
53546;BME280;39432;51.902;10.844;2023-04-06T01:48:36;99849.66;;;0.61;100.00
53546;BME280;39432;51.902;10.844;2023-04-06T01:51:18;99842.78;;;0.44;100.00
53546;BME280;39432;51.902;10.844;2023-04-06T01:53:53;99840.63;;;0.54;100.00
53546;BME280;39432;51.902;10.844;2023-04-06T01:56:34;99833.38;;;0.55;100.00
53546;BME280;39432;51.902;10.844;2023-04-06T01:59:17;99839.09;;;0.45;100.00
53546;BME280;39432;51.902;10.844;2023-04-06T02:01:47;99845.00;;;0.25;100.00
53546;BME280;39432;51.902;10.844;2023-04-06T02:04:17;99841.69;;;0.23;100.00
53546;BME280;39432;51.902;10.844;2023-04-06T02:06:56;99841.47;;;0.25;100.00
53546;BME280;39432;51.902;10.844;2023-04-06T02:09:28;99842.31;;;1.06;100.00
53546;BME280;39432;51.902;10.844;2023-04-06T02:12:01;99839.81;;;1.47;100.00
53546;BME280;39432;51.902;10.844;2023-04-06T02:14:32;99841.16;;;1.15;100.00
53546;BME280;39432;51.902;10.844;2023-04-06T02:17:03;99844.47;;;0.45;100.00
53546;BME280;39432;51.902;10.844;2023-04-06T02:19:33;99840.28;;;1.51;100.00
53546;BME280;39432;51.902;10.844;2023-04-06T02:22:02;99842.44;;;1.19;100.00
53546;BME280;39432;51.902;10.844;2023-04-06T02:24:32;99837.22;;;1.33;100.00
53546;BME280;39432;51.902;10.844;2023-04-06T02:27:05;99846.06;;;1.26;100.00
53546;BME280;39432;51.902;10.844;2023-04-06T02:29:34;99840.69;;;0.90;100.00
53546;BME280;39432;51.902;10.844;2023-04-06T02:32:05;99829.88;;;1.48;100.00
53546;BME280;39432;51.902;10.844;2023-04-06T02:34:34;99832.78;;;1.46;100.00
53546;BME280;39432;51.902;10.844;2023-04-06T02:37:05;99835.63;;;1.02;100.00
53546;BME280;39432;51.902;10.844;2023-04-06T02:39:35;99833.56;;;1.04;100.00
53546;BME280;39432;51.902;10.844;2023-04-06T02:42:10;99826.41;;;0.60;100.00
53546;BME280;39432;51.902;10.844;2023-04-06T02:44:43;99823.03;;;0.88;100.00
53546;BME280;39432;51.902;10.844;2023-04-06T02:47:13;99825.44;;;0.46;100.00
53546;BME280;39432;51.902;10.844;2023-04-06T02:49:47;99831.09;;;0.07;100.00
53546;BME280;39432;51.902;10.844;2023-04-06T02:52:17;99816.03;;;0.57;100.00
53546;BME280;39432;51.902;10.844;2023-04-06T02:54:47;99830.72;;;0.40;100.00
53546;BME280;39432;51.902;10.844;2023-04-06T02:57:26;99822.06;;;1.10;100.00
53546;BME280;39432;51.902;10.844;2023-04-06T02:59:56;99820.34;;;0.88;100.00
53546;BME280;39432;51.902;10.844;2023-04-06T03:02:34;99824.25;;;0.34;100.00
53546;BME280;39432;51.902;10.844;2023-04-06T03:05:08;99829.31;;;-0.15;100.00
53546;BME280;39432;51.902;10.844;2023-04-06T03:07:41;99827.69;;;-0.24;100.00
53546;BME280;39432;51.902;10.844;2023-04-06T03:10:18;99829.38;;;-0.23;100.00
53546;BME280;39432;51.902;10.844;2023-04-06T03:12:51;99826.81;;;0.42;100.00
53546;BME280;39432;51.902;10.844;2023-04-06T03:15:23;99827.19;;;0.54;100.00
53546;BME280;39432;51.902;10.844;2023-04-06T03:18:04;99823.84;;;0.67;100.00
53546;BME280;39432;51.902;10.844;2023-04-06T03:20:39;99824.59;;;0.46;100.00
53546;BME280;39432;51.902;10.844;2023-04-06T03:23:09;99825.44;;;0.46;100.00
53546;BME280;39432;51.902;10.844;2023-04-06T03:25:41;99832.09;;;0.21;100.00
53546;BME280;39432;51.902;10.844;2023-04-06T03:28:17;99832.00;;;0.14;100.00
53546;BME280;39432;51.902;10.844;2023-04-06T03:30:56;99826.81;;;-0.02;100.00
53546;BME280;39432;51.902;10.844;2023-04-06T03:33:45;99826.19;;;-0.42;100.00
53546;BME280;39432;51.902;10.844;2023-04-06T03:36:28;99830.25;;;-0.46;100.00
53546;BME280;39432;51.902;10.844;2023-04-06T03:38:59;99831.19;;;-0.62;100.00
53546;BME280;39432;51.902;10.844;2023-04-06T03:41:31;99833.16;;;-0.33;100.00
53546;BME280;39432;51.902;10.844;2023-04-06T03:44:12;99828.78;;;-0.34;100.00
53546;BME280;39432;51.902;10.844;2023-04-06T03:46:43;99828.41;;;-0.68;100.00
53546;BME280;39432;51.902;10.844;2023-04-06T03:49:13;99836.78;;;-0.25;100.00
53546;BME280;39432;51.902;10.844;2023-04-06T03:51:47;99828.75;;;0.04;100.00
53546;BME280;39432;51.902;10.844;2023-04-06T03:54:16;99839.66;;;-0.27;100.00
53546;BME280;39432;51.902;10.844;2023-04-06T03:56:46;99839.38;;;-0.55;100.00
53546;BME280;39432;51.902;10.844;2023-04-06T03:59:18;99829.78;;;-0.49;100.00
53546;BME280;39432;51.902;10.844;2023-04-06T04:01:52;99839.56;;;-0.80;100.00
53546;BME280;39432;51.902;10.844;2023-04-06T04:04:22;99833.97;;;0.06;100.00
53546;BME280;39432;51.902;10.844;2023-04-06T04:06:52;99829.59;;;0.19;100.00
53546;BME280;39432;51.902;10.844;2023-04-06T04:09:22;99843.72;;;-0.31;100.00
53546;BME280;39432;51.902;10.844;2023-04-06T04:11:55;99835.59;;;-0.08;100.00
53546;BME280;39432;51.902;10.844;2023-04-06T04:14:28;99839.09;;;0.45;100.00
53546;BME280;39432;51.902;10.844;2023-04-06T04:16:57;99841.31;;;0.41;100.00
53546;BME280;39432;51.902;10.844;2023-04-06T04:19:27;99839.47;;;-0.25;100.00
53546;BME280;39432;51.902;10.844;2023-04-06T04:21:57;99849.53;;;-0.05;100.00
53546;BME280;39432;51.902;10.844;2023-04-06T04:24:32;99841.91;;;-0.01;100.00
53546;BME280;39432;51.902;10.844;2023-04-06T04:27:02;99844.25;;;0.02;100.00
53546;BME280;39432;51.902;10.844;2023-04-06T04:29:35;99839.06;;;0.15;100.00
53546;BME280;39432;51.902;10.844;2023-04-06T04:32:08;99841.81;;;-0.08;100.00
53546;BME280;39432;51.902;10.844;2023-04-06T04:34:38;99848.22;;;-0.69;100.00
53546;BME280;39432;51.902;10.844;2023-04-06T04:37:16;99846.47;;;-0.16;100.00
53546;BME280;39432;51.902;10.844;2023-04-06T04:39:53;99839.06;;;0.15;100.00
53546;BME280;39432;51.902;10.844;2023-04-06T04:42:23;99840.69;;;-0.13;100.00
53546;BME280;39432;51.902;10.844;2023-04-06T04:44:58;99841.22;;;0.35;100.00
53546;BME280;39432;51.902;10.844;2023-04-06T04:47:35;99836.47;;;0.37;100.00
53546;BME280;39432;51.902;10.844;2023-04-06T04:50:07;99836.97;;;-0.12;100.00
53546;BME280;39432;51.902;10.844;2023-04-06T04:52:40;99850.41;;;-0.96;100.00
53546;BME280;39432;51.902;10.844;2023-04-06T04:55:24;99844.00;;;-0.64;100.00
53546;BME280;39432;51.902;10.844;2023-04-06T04:57:57;99844.06;;;0.48;100.00
53546;BME280;39432;51.902;10.844;2023-04-06T05:00:46;99848.47;;;-0.18;100.00
53546;BME280;39432;51.902;10.844;2023-04-06T05:03:21;99845.66;;;-0.86;100.00
53546;BME280;39432;51.902;10.844;2023-04-06T05:06:13;99837.19;;;0.16;100.00
53546;BME280;39432;51.902;10.844;2023-04-06T05:08:43;99839.34;;;0.20;100.00
53546;BME280;39432;51.902;10.844;2023-04-06T05:11:13;99839.34;;;0.50;100.00
53546;BME280;39432;51.902;10.844;2023-04-06T05:13:48;99829.75;;;1.35;100.00
53546;BME280;39432;51.902;10.844;2023-04-06T05:16:24;99829.56;;;1.57;100.00
53546;BME280;39432;51.902;10.844;2023-04-06T05:18:54;99835.91;;;1.71;100.00
53546;BME280;39432;51.902;10.844;2023-04-06T05:21:36;99832.38;;;1.07;100.00
53546;BME280;39432;51.902;10.844;2023-04-06T05:24:07;99837.28;;;1.89;100.00
53546;BME280;39432;51.902;10.844;2023-04-06T05:26:37;99837.63;;;1.79;100.00
53546;BME280;39432;51.902;10.844;2023-04-06T05:29:16;99842.28;;;1.92;100.00
53546;BME280;39432;51.902;10.844;2023-04-06T05:31:50;99839.41;;;2.21;100.00
53546;BME280;39432;51.902;10.844;2023-04-06T05:34:20;99837.56;;;1.72;100.00
53546;BME280;39432;51.902;10.844;2023-04-06T05:36:50;99845.16;;;1.62;100.00
53546;BME280;39432;51.902;10.844;2023-04-06T05:39:23;99843.22;;;2.33;100.00
53546;BME280;39432;51.902;10.844;2023-04-06T05:41:53;99840.03;;;2.23;99.38
53546;BME280;39432;51.902;10.844;2023-04-06T05:44:33;99852.19;;;2.47;99.45
53546;BME280;39432;51.902;10.844;2023-04-06T05:47:12;99848.59;;;1.99;100.00
53546;BME280;39432;51.902;10.844;2023-04-06T05:49:45;99852.44;;;1.90;100.00
53546;BME280;39432;51.902;10.844;2023-04-06T05:52:22;99845.22;;;2.53;100.00
53546;BME280;39432;51.902;10.844;2023-04-06T05:54:53;99853.53;;;3.06;99.21
53546;BME280;39432;51.902;10.844;2023-04-06T05:57:24;99854.63;;;2.70;100.00
53546;BME280;39432;51.902;10.844;2023-04-06T05:59:54;99853.00;;;3.43;100.00
53546;BME280;39432;51.902;10.844;2023-04-06T06:02:40;99851.38;;;3.82;96.45
53546;BME280;39432;51.902;10.844;2023-04-06T06:05:16;99840.94;;;4.32;92.97
53546;BME280;39432;51.902;10.844;2023-04-06T06:07:47;99852.53;;;3.20;92.85
53546;BME280;39432;51.902;10.844;2023-04-06T06:10:17;99845.50;;;2.71;96.11
53546;BME280;39432;51.902;10.844;2023-04-06T06:12:47;99850.38;;;2.20;99.98
53546;BME280;39432;51.902;10.844;2023-04-06T06:15:17;99846.22;;;2.52;100.00
53546;BME280;39432;51.902;10.844;2023-04-06T06:17:50;99842.59;;;3.40;100.00
53546;BME280;39432;51.902;10.844;2023-04-06T06:20:20;99851.56;;;3.48;100.00
53546;BME280;39432;51.902;10.844;2023-04-06T06:22:50;99847.50;;;3.04;100.00
53546;BME280;39432;51.902;10.844;2023-04-06T06:25:21;99848.25;;;2.84;100.00
53546;BME280;39432;51.902;10.844;2023-04-06T06:27:51;99848.78;;;3.14;100.00
53546;BME280;39432;51.902;10.844;2023-04-06T06:30:21;99843.53;;;2.17;100.00
53546;BME280;39432;51.902;10.844;2023-04-06T06:32:54;99846.19;;;2.86;100.00
53546;BME280;39432;51.902;10.844;2023-04-06T06:35:24;99845.13;;;3.88;100.00
53546;BME280;39432;51.902;10.844;2023-04-06T06:37:54;99835.97;;;4.03;100.00
53546;BME280;39432;51.902;10.844;2023-04-06T06:40:26;99840.56;;;3.82;100.00
53546;BME280;39432;51.902;10.844;2023-04-06T06:42:56;99850.97;;;3.85;100.00
53546;BME280;39432;51.902;10.844;2023-04-06T06:45:33;99840.78;;;3.87;100.00
53546;BME280;39432;51.902;10.844;2023-04-06T06:48:05;99840.53;;;4.22;100.00
53546;BME280;39432;51.902;10.844;2023-04-06T06:50:36;99832.56;;;4.54;98.34
53546;BME280;39432;51.902;10.844;2023-04-06T06:53:06;99845.09;;;4.28;95.44
53546;BME280;39432;51.902;10.844;2023-04-06T06:55:36;99845.97;;;3.82;97.28
53546;BME280;39432;51.902;10.844;2023-04-06T06:58:06;99835.47;;;4.52;96.58
53546;BME280;39432;51.902;10.844;2023-04-06T07:00:35;99840.00;;;5.23;94.23
53546;BME280;39432;51.902;10.844;2023-04-06T07:03:09;99844.88;;;5.71;88.58
53546;BME280;39432;51.902;10.844;2023-04-06T07:05:45;99835.34;;;5.93;87.71
53546;BME280;39432;51.902;10.844;2023-04-06T07:08:20;99832.81;;;5.67;86.21
53546;BME280;39432;51.902;10.844;2023-04-06T07:10:51;99834.78;;;5.53;83.89
53546;BME280;39432;51.902;10.844;2023-04-06T07:13:23;99832.38;;;5.38;86.64
53546;BME280;39432;51.902;10.844;2023-04-06T07:15:56;99834.44;;;6.24;85.11
53546;BME280;39432;51.902;10.844;2023-04-06T07:18:30;99829.78;;;5.81;82.43
53546;BME280;39432;51.902;10.844;2023-04-06T07:21:03;99824.75;;;5.85;86.43
53546;BME280;39432;51.902;10.844;2023-04-06T07:23:34;99837.50;;;6.10;83.68
53546;BME280;39432;51.902;10.844;2023-04-06T07:26:06;99825.78;;;6.52;80.01
53546;BME280;39432;51.902;10.844;2023-04-06T07:28:36;99823.91;;;6.34;80.48
53546;BME280;39432;51.902;10.844;2023-04-06T07:31:07;99827.91;;;6.69;80.38
53546;BME280;39432;51.902;10.844;2023-04-06T07:33:39;99834.75;;;5.91;82.55
53546;BME280;39432;51.902;10.844;2023-04-06T07:36:09;99835.66;;;5.78;84.58
53546;BME280;39432;51.902;10.844;2023-04-06T07:38:39;99832.03;;;5.60;83.71
53546;BME280;39432;51.902;10.844;2023-04-06T07:41:09;99826.94;;;5.70;88.91
53546;BME280;39432;51.902;10.844;2023-04-06T07:43:39;99830.31;;;6.95;88.21
53546;BME280;39432;51.902;10.844;2023-04-06T07:46:09;99826.97;;;7.42;83.63
53546;BME280;39432;51.902;10.844;2023-04-06T07:48:41;99826.53;;;8.22;79.71
53546;BME280;39432;51.902;10.844;2023-04-06T07:51:11;99828.06;;;8.29;77.82
53546;BME280;39432;51.902;10.844;2023-04-06T07:53:43;99813.03;;;8.50;75.02
53546;BME280;39432;51.902;10.844;2023-04-06T07:56:13;99814.03;;;8.84;72.66
53546;BME280;39432;51.902;10.844;2023-04-06T07:58:44;99826.53;;;8.10;70.76
53546;BME280;39432;51.902;10.844;2023-04-06T08:01:13;99808.88;;;8.59;71.88
53546;BME280;39432;51.902;10.844;2023-04-06T08:03:46;99818.81;;;8.18;73.72
53546;BME280;39432;51.902;10.844;2023-04-06T08:06:16;99818.72;;;7.48;74.49
53546;BME280;39432;51.902;10.844;2023-04-06T08:08:45;99816.03;;;8.37;75.46
53546;BME280;39432;51.902;10.844;2023-04-06T08:11:15;99814.03;;;8.96;72.29
53546;BME280;39432;51.902;10.844;2023-04-06T08:13:45;99815.06;;;8.43;72.27
53546;BME280;39432;51.902;10.844;2023-04-06T08:16:15;99809.31;;;8.68;69.47
53546;BME280;39432;51.902;10.844;2023-04-06T08:18:47;99823.81;;;8.57;70.81
53546;BME280;39432;51.902;10.844;2023-04-06T08:21:17;99824.47;;;7.82;72.79
53546;BME280;39432;51.902;10.844;2023-04-06T08:23:47;99818.75;;;7.30;74.96
53546;BME280;39432;51.902;10.844;2023-04-06T08:26:17;99819.03;;;7.82;72.58
53546;BME280;39432;51.902;10.844;2023-04-06T08:28:46;99822.47;;;7.77;68.84
53546;BME280;39432;51.902;10.844;2023-04-06T08:31:16;99822.38;;;7.42;69.70
53546;BME280;39432;51.902;10.844;2023-04-06T08:33:48;99825.91;;;7.12;69.58
53546;BME280;39432;51.902;10.844;2023-04-06T08:36:18;99823.53;;;7.04;70.82
53546;BME280;39432;51.902;10.844;2023-04-06T08:38:49;99830.91;;;7.57;71.66
53546;BME280;39432;51.902;10.844;2023-04-06T08:41:20;99825.66;;;7.14;71.92
53546;BME280;39432;51.902;10.844;2023-04-06T08:43:56;99823.97;;;7.61;73.38
53546;BME280;39432;51.902;10.844;2023-04-06T08:46:28;99816.38;;;7.63;72.33
53546;BME280;39432;51.902;10.844;2023-04-06T08:49:02;99815.19;;;8.48;69.26
53546;BME280;39432;51.902;10.844;2023-04-06T08:51:37;99827.72;;;8.26;67.40
53546;BME280;39432;51.902;10.844;2023-04-06T08:54:07;99812.78;;;8.05;67.79
53546;BME280;39432;51.902;10.844;2023-04-06T08:56:38;99812.44;;;8.25;66.69
53546;BME280;39432;51.902;10.844;2023-04-06T08:59:09;99808.13;;;8.76;65.10
53546;BME280;39432;51.902;10.844;2023-04-06T09:01:40;99812.47;;;9.29;61.07
53546;BME280;39432;51.902;10.844;2023-04-06T09:04:15;99810.63;;;9.46;58.12
53546;BME280;39432;51.902;10.844;2023-04-06T09:06:46;99815.00;;;9.47;56.79
53546;BME280;39432;51.902;10.844;2023-04-06T09:09:16;99808.88;;;9.40;55.43
53546;BME280;39432;51.902;10.844;2023-04-06T09:11:51;99800.47;;;9.92;53.95
53546;BME280;39432;51.902;10.844;2023-04-06T09:14:33;99804.81;;;9.14;54.01
53546;BME280;39432;51.902;10.844;2023-04-06T09:17:04;99798.16;;;10.17;55.37
53546;BME280;39432;51.902;10.844;2023-04-06T09:19:47;99806.28;;;10.12;53.57
53546;BME280;39432;51.902;10.844;2023-04-06T09:22:17;99803.00;;;9.65;53.39
53546;BME280;39432;51.902;10.844;2023-04-06T09:24:49;99799.97;;;10.28;54.26
53546;BME280;39432;51.902;10.844;2023-04-06T09:27:29;99804.59;;;10.45;52.21
53546;BME280;39432;51.902;10.844;2023-04-06T09:30:04;99792.66;;;10.51;50.77
53546;BME280;39432;51.902;10.844;2023-04-06T09:32:44;99796.47;;;10.50;49.47
53546;BME280;39432;51.902;10.844;2023-04-06T09:35:18;99788.53;;;11.19;47.30
53546;BME280;39432;51.902;10.844;2023-04-06T09:37:50;99801.91;;;11.38;46.15
53546;BME280;39432;51.902;10.844;2023-04-06T09:40:22;99800.22;;;11.91;44.79
53546;BME280;39432;51.902;10.844;2023-04-06T09:42:52;99791.78;;;10.67;44.24
53546;BME280;39432;51.902;10.844;2023-04-06T09:45:24;99791.66;;;11.28;44.99
53546;BME280;39432;51.902;10.844;2023-04-06T09:47:55;99796.81;;;11.78;44.19
53546;BME280;39432;51.902;10.844;2023-04-06T09:50:29;99803.47;;;11.82;42.99
53546;BME280;39432;51.902;10.844;2023-04-06T09:53:01;99798.81;;;12.20;42.86
53546;BME280;39432;51.902;10.844;2023-04-06T09:55:35;99799.63;;;11.83;43.75
53546;BME280;39432;51.902;10.844;2023-04-06T09:58:09;99787.84;;;11.56;44.89
53546;BME280;39432;51.902;10.844;2023-04-06T10:00:42;99788.22;;;11.97;43.59
53546;BME280;39432;51.902;10.844;2023-04-06T10:03:20;99792.28;;;11.89;42.32
53546;BME280;39432;51.902;10.844;2023-04-06T10:05:55;99795.09;;;12.42;41.75
53546;BME280;39432;51.902;10.844;2023-04-06T10:08:27;99779.66;;;10.63;41.91
53546;BME280;39432;51.902;10.844;2023-04-06T10:10:59;99783.22;;;11.89;42.72
53546;BME280;39432;51.902;10.844;2023-04-06T10:13:29;99774.97;;;11.29;43.24
53546;BME280;39432;51.902;10.844;2023-04-06T10:15:59;99776.41;;;11.96;43.68
53546;BME280;39432;51.902;10.844;2023-04-06T10:18:30;99780.84;;;12.39;42.53
53546;BME280;39432;51.902;10.844;2023-04-06T10:21:06;99770.88;;;11.91;41.89
53546;BME280;39432;51.902;10.844;2023-04-06T10:23:41;99778.63;;;12.42;42.16
53546;BME280;39432;51.902;10.844;2023-04-06T10:26:14;99777.72;;;12.21;42.07
53546;BME280;39432;51.902;10.844;2023-04-06T10:28:45;99776.81;;;12.10;41.08
53546;BME280;39432;51.902;10.844;2023-04-06T10:31:24;99773.97;;;13.00;40.97
53546;BME280;39432;51.902;10.844;2023-04-06T10:33:54;99772.97;;;12.11;41.42
53546;BME280;39432;51.902;10.844;2023-04-06T10:36:28;99778.25;;;11.26;41.37
53546;BME280;39432;51.902;10.844;2023-04-06T10:39:03;99782.75;;;11.43;42.26
53546;BME280;39432;51.902;10.844;2023-04-06T10:41:34;99775.13;;;12.04;41.60
53546;BME280;39432;51.902;10.844;2023-04-06T10:44:04;99774.19;;;11.34;41.09
53546;BME280;39432;51.902;10.844;2023-04-06T10:46:34;99780.31;;;12.43;42.04
53546;BME280;39432;51.902;10.844;2023-04-06T10:49:10;99770.00;;;12.65;40.59
53546;BME280;39432;51.902;10.844;2023-04-06T10:51:43;99765.28;;;11.76;39.85
53546;BME280;39432;51.902;10.844;2023-04-06T10:54:13;99765.09;;;12.77;40.36
53546;BME280;39432;51.902;10.844;2023-04-06T10:56:43;99761.28;;;12.83;41.15
53546;BME280;39432;51.902;10.844;2023-04-06T10:59:13;99776.97;;;12.35;41.29
53546;BME280;39432;51.902;10.844;2023-04-06T11:01:44;99767.97;;;13.13;40.50
53546;BME280;39432;51.902;10.844;2023-04-06T11:04:16;99771.81;;;12.44;39.86
53546;BME280;39432;51.902;10.844;2023-04-06T11:06:50;99772.38;;;12.04;40.37
53546;BME280;39432;51.902;10.844;2023-04-06T11:09:25;99763.81;;;12.37;39.40
53546;BME280;39432;51.902;10.844;2023-04-06T11:11:56;99758.25;;;11.58;39.10
53546;BME280;39432;51.902;10.844;2023-04-06T11:14:25;99754.50;;;13.11;40.18
53546;BME280;39432;51.902;10.844;2023-04-06T11:16:55;99757.56;;;13.15;40.73
53546;BME280;39432;51.902;10.844;2023-04-06T11:19:25;99746.81;;;13.03;39.27
53546;BME280;39432;51.902;10.844;2023-04-06T11:22:06;99759.03;;;12.18;40.64
53546;BME280;39432;51.902;10.844;2023-04-06T11:24:36;99758.56;;;12.88;40.05
53546;BME280;39432;51.902;10.844;2023-04-06T11:27:06;99754.78;;;13.05;40.24
53546;BME280;39432;51.902;10.844;2023-04-06T11:29:35;99751.31;;;13.30;38.06
53546;BME280;39432;51.902;10.844;2023-04-06T11:32:07;99754.00;;;12.04;37.31
53546;BME280;39432;51.902;10.844;2023-04-06T11:34:38;99747.56;;;12.26;39.50
53546;BME280;39432;51.902;10.844;2023-04-06T11:37:11;99752.94;;;12.53;39.97
53546;BME280;39432;51.902;10.844;2023-04-06T11:39:48;99749.16;;;12.74;39.73
53546;BME280;39432;51.902;10.844;2023-04-06T11:42:23;99747.59;;;11.89;38.94
53546;BME280;39432;51.902;10.844;2023-04-06T11:44:54;99747.19;;;12.12;40.15
53546;BME280;39432;51.902;10.844;2023-04-06T11:47:28;99744.94;;;13.19;40.32
53546;BME280;39432;51.902;10.844;2023-04-06T11:50:05;99743.31;;;13.28;40.12
53546;BME280;39432;51.902;10.844;2023-04-06T11:52:39;99733.31;;;12.91;39.72
53546;BME280;39432;51.902;10.844;2023-04-06T11:55:13;99740.38;;;12.72;39.93
53546;BME280;39432;51.902;10.844;2023-04-06T11:57:43;99736.53;;;12.73;38.90
53546;BME280;39432;51.902;10.844;2023-04-06T12:00:15;99736.38;;;12.37;38.78
53546;BME280;39432;51.902;10.844;2023-04-06T12:02:45;99741.53;;;12.86;38.72
53546;BME280;39432;51.902;10.844;2023-04-06T12:05:15;99738.94;;;13.42;38.51
53546;BME280;39432;51.902;10.844;2023-04-06T12:07:48;99722.72;;;12.48;38.46
53546;BME280;39432;51.902;10.844;2023-04-06T12:10:17;99719.03;;;13.00;38.60
53546;BME280;39432;51.902;10.844;2023-04-06T12:12:47;99720.13;;;12.88;39.25
53546;BME280;39432;51.902;10.844;2023-04-06T12:15:17;99723.28;;;13.48;38.59
53546;BME280;39432;51.902;10.844;2023-04-06T12:17:47;99720.78;;;13.21;38.76
53546;BME280;39432;51.902;10.844;2023-04-06T12:20:17;99717.59;;;12.72;38.80
53546;BME280;39432;51.902;10.844;2023-04-06T12:22:55;99712.44;;;12.28;39.06
53546;BME280;39432;51.902;10.844;2023-04-06T12:25:25;99716.41;;;12.57;40.64
53546;BME280;39432;51.902;10.844;2023-04-06T12:27:56;99698.34;;;12.61;41.45
53546;BME280;39432;51.902;10.844;2023-04-06T12:30:26;99706.34;;;12.78;40.78
53546;BME280;39432;51.902;10.844;2023-04-06T12:32:57;99696.66;;;12.55;41.13
53546;BME280;39432;51.902;10.844;2023-04-06T12:35:27;99694.44;;;13.35;39.50
53546;BME280;39432;51.902;10.844;2023-04-06T12:37:59;99691.31;;;13.06;39.65
53546;BME280;39432;51.902;10.844;2023-04-06T12:40:29;99683.56;;;12.83;39.86
53546;BME280;39432;51.902;10.844;2023-04-06T12:42:58;99691.13;;;13.43;40.45
53546;BME280;39432;51.902;10.844;2023-04-06T12:45:30;99699.88;;;13.96;39.57
53546;BME280;39432;51.902;10.844;2023-04-06T12:47:59;99697.69;;;13.78;40.52
53546;BME280;39432;51.902;10.844;2023-04-06T12:50:29;99695.75;;;13.23;38.78
53546;BME280;39432;51.902;10.844;2023-04-06T12:53:01;99694.34;;;13.05;37.91
53546;BME280;39432;51.902;10.844;2023-04-06T12:55:31;99691.47;;;12.59;38.53
53546;BME280;39432;51.902;10.844;2023-04-06T12:58:03;99689.19;;;12.40;38.38
53546;BME280;39432;51.902;10.844;2023-04-06T13:00:33;99684.31;;;12.63;39.04
53546;BME280;39432;51.902;10.844;2023-04-06T13:03:03;99685.56;;;13.03;39.13
53546;BME280;39432;51.902;10.844;2023-04-06T13:05:33;99682.75;;;12.82;39.31
53546;BME280;39432;51.902;10.844;2023-04-06T13:08:05;99680.69;;;13.35;37.68
53546;BME280;39432;51.902;10.844;2023-04-06T13:10:35;99679.22;;;13.12;37.83
53546;BME280;39432;51.902;10.844;2023-04-06T13:13:05;99671.31;;;13.26;38.29
53546;BME280;39432;51.902;10.844;2023-04-06T13:15:34;99669.38;;;13.67;38.83
53546;BME280;39432;51.902;10.844;2023-04-06T13:18:04;99677.84;;;13.05;39.87
53546;BME280;39432;51.902;10.844;2023-04-06T13:20:34;99659.72;;;13.04;38.87